sensor_id;sensor_type;location;lat;lon;timestamp;temperature;humidity
18753;DHT22;9505;50.882;5.350;2023-02-28T00:00:45;0.20;99.90
18753;DHT22;9505;50.882;5.350;2023-02-28T00:03:10;0.20;99.90
18753;DHT22;9505;50.882;5.350;2023-02-28T00:05:36;0.20;99.90
18753;DHT22;9505;50.882;5.350;2023-02-28T00:08:02;0.20;99.90
18753;DHT22;9505;50.882;5.350;2023-02-28T00:10:29;0.20;99.90
18753;DHT22;9505;50.882;5.350;2023-02-28T00:13:00;0.20;99.90
18753;DHT22;9505;50.882;5.350;2023-02-28T00:15:26;0.20;99.90
18753;DHT22;9505;50.882;5.350;2023-02-28T00:17:52;0.30;99.90
18753;DHT22;9505;50.882;5.350;2023-02-28T00:20:18;0.20;99.90
18753;DHT22;9505;50.882;5.350;2023-02-28T00:22:46;0.30;99.90
18753;DHT22;9505;50.882;5.350;2023-02-28T00:25:14;0.20;99.90
18753;DHT22;9505;50.882;5.350;2023-02-28T00:27:40;0.20;99.90
18753;DHT22;9505;50.882;5.350;2023-02-28T00:30:08;0.20;99.90
18753;DHT22;9505;50.882;5.350;2023-02-28T00:32:34;0.10;99.90
18753;DHT22;9505;50.882;5.350;2023-02-28T00:35:01;0.10;99.90
18753;DHT22;9505;50.882;5.350;2023-02-28T00:37:26;0.00;99.90
18753;DHT22;9505;50.882;5.350;2023-02-28T00:39:52;0.00;99.90
18753;DHT22;9505;50.882;5.350;2023-02-28T00:42:17;0.00;99.90
18753;DHT22;9505;50.882;5.350;2023-02-28T00:44:43;0.00;99.90
18753;DHT22;9505;50.882;5.350;2023-02-28T00:47:09;-0.10;99.90
18753;DHT22;9505;50.882;5.350;2023-02-28T00:49:34;-0.10;99.90
18753;DHT22;9505;50.882;5.350;2023-02-28T00:52:00;-0.10;99.90
18753;DHT22;9505;50.882;5.350;2023-02-28T00:54:25;-0.10;99.90
18753;DHT22;9505;50.882;5.350;2023-02-28T00:56:51;-0.20;99.90
18753;DHT22;9505;50.882;5.350;2023-02-28T00:59:17;-0.20;99.90
18753;DHT22;9505;50.882;5.350;2023-02-28T01:01:44;-0.20;99.90
18753;DHT22;9505;50.882;5.350;2023-02-28T01:04:11;-0.20;99.90
18753;DHT22;9505;50.882;5.350;2023-02-28T01:06:37;-0.20;99.90
18753;DHT22;9505;50.882;5.350;2023-02-28T01:09:04;-0.20;99.90
18753;DHT22;9505;50.882;5.350;2023-02-28T01:11:30;-0.20;99.90
18753;DHT22;9505;50.882;5.350;2023-02-28T01:13:57;-0.10;99.90
18753;DHT22;9505;50.882;5.350;2023-02-28T01:16:23;-0.10;99.90
18753;DHT22;9505;50.882;5.350;2023-02-28T01:18:48;-0.10;99.90
18753;DHT22;9505;50.882;5.350;2023-02-28T01:21:16;-0.10;99.90
18753;DHT22;9505;50.882;5.350;2023-02-28T01:23:42;-0.20;99.90
18753;DHT22;9505;50.882;5.350;2023-02-28T01:26:11;-0.20;99.90
18753;DHT22;9505;50.882;5.350;2023-02-28T01:28:37;-0.20;99.90
18753;DHT22;9505;50.882;5.350;2023-02-28T01:31:03;-0.20;99.90
18753;DHT22;9505;50.882;5.350;2023-02-28T01:33:29;-0.20;99.90
18753;DHT22;9505;50.882;5.350;2023-02-28T01:36:22;-0.20;99.90
18753;DHT22;9505;50.882;5.350;2023-02-28T01:38:48;-0.20;99.90
18753;DHT22;9505;50.882;5.350;2023-02-28T01:41:20;-0.20;99.90
18753;DHT22;9505;50.882;5.350;2023-02-28T01:46:12;-0.30;99.90
18753;DHT22;9505;50.882;5.350;2023-02-28T01:48:41;-0.30;99.90
18753;DHT22;9505;50.882;5.350;2023-02-28T01:51:21;-0.30;99.90
18753;DHT22;9505;50.882;5.350;2023-02-28T01:53:53;-0.40;99.90
18753;DHT22;9505;50.882;5.350;2023-02-28T01:56:26;-0.40;99.90
18753;DHT22;9505;50.882;5.350;2023-02-28T01:58:55;-0.40;99.90
18753;DHT22;9505;50.882;5.350;2023-02-28T02:01:22;-0.40;99.90
18753;DHT22;9505;50.882;5.350;2023-02-28T02:03:53;-0.50;99.90
18753;DHT22;9505;50.882;5.350;2023-02-28T02:06:34;-0.50;99.90
18753;DHT22;9505;50.882;5.350;2023-02-28T02:09:01;-0.50;99.90
18753;DHT22;9505;50.882;5.350;2023-02-28T02:11:26;-0.60;99.90
18753;DHT22;9505;50.882;5.350;2023-02-28T02:24:48;-0.60;99.90
18753;DHT22;9505;50.882;5.350;2023-02-28T02:35:15;-0.60;99.90
18753;DHT22;9505;50.882;5.350;2023-02-28T02:38:05;-0.70;99.90
18753;DHT22;9505;50.882;5.350;2023-02-28T02:40:46;-0.70;99.90
18753;DHT22;9505;50.882;5.350;2023-02-28T02:43:22;-0.80;99.90
18753;DHT22;9505;50.882;5.350;2023-02-28T02:46:02;-0.80;99.90
18753;DHT22;9505;50.882;5.350;2023-02-28T02:48:32;-0.80;99.90
18753;DHT22;9505;50.882;5.350;2023-02-28T02:51:01;-0.80;99.90
18753;DHT22;9505;50.882;5.350;2023-02-28T02:53:36;-0.80;99.90
18753;DHT22;9505;50.882;5.350;2023-02-28T02:56:03;-0.80;99.90
18753;DHT22;9505;50.882;5.350;2023-02-28T02:58:36;-0.90;99.90
18753;DHT22;9505;50.882;5.350;2023-02-28T03:01:13;-0.90;99.90
18753;DHT22;9505;50.882;5.350;2023-02-28T03:03:40;-0.90;99.90
18753;DHT22;9505;50.882;5.350;2023-02-28T03:06:06;-1.00;99.90
18753;DHT22;9505;50.882;5.350;2023-02-28T03:08:37;-1.00;99.90
18753;DHT22;9505;50.882;5.350;2023-02-28T03:11:06;-1.10;99.90
18753;DHT22;9505;50.882;5.350;2023-02-28T03:13:57;-1.20;99.90
18753;DHT22;9505;50.882;5.350;2023-02-28T03:19:44;-1.20;99.90
18753;DHT22;9505;50.882;5.350;2023-02-28T03:22:16;-1.20;99.90
18753;DHT22;9505;50.882;5.350;2023-02-28T03:28:02;-1.30;99.90
18753;DHT22;9505;50.882;5.350;2023-02-28T03:33:14;-1.50;99.90
18753;DHT22;9505;50.882;5.350;2023-02-28T03:35:49;-1.50;99.90
18753;DHT22;9505;50.882;5.350;2023-02-28T03:38:29;-1.60;99.90
18753;DHT22;9505;50.882;5.350;2023-02-28T03:41:14;-1.60;99.90
18753;DHT22;9505;50.882;5.350;2023-02-28T03:43:44;-1.70;99.90
18753;DHT22;9505;50.882;5.350;2023-02-28T03:46:16;-1.70;99.90
18753;DHT22;9505;50.882;5.350;2023-02-28T03:48:55;-1.70;99.90
18753;DHT22;9505;50.882;5.350;2023-02-28T03:51:23;-1.60;99.90
18753;DHT22;9505;50.882;5.350;2023-02-28T03:53:56;-1.50;99.90
18753;DHT22;9505;50.882;5.350;2023-02-28T03:56:30;-1.40;99.90
18753;DHT22;9505;50.882;5.350;2023-02-28T03:59:15;-1.40;99.90
18753;DHT22;9505;50.882;5.350;2023-02-28T04:01:44;-1.30;99.90
18753;DHT22;9505;50.882;5.350;2023-02-28T04:04:11;-1.20;99.90
18753;DHT22;9505;50.882;5.350;2023-02-28T04:06:37;-1.20;99.90
18753;DHT22;9505;50.882;5.350;2023-02-28T04:09:05;-1.20;99.90
18753;DHT22;9505;50.882;5.350;2023-02-28T04:11:39;-1.20;99.90
18753;DHT22;9505;50.882;5.350;2023-02-28T04:14:06;-1.10;99.90
18753;DHT22;9505;50.882;5.350;2023-02-28T04:16:34;-1.20;99.90
18753;DHT22;9505;50.882;5.350;2023-02-28T04:19:00;-1.20;99.90
18753;DHT22;9505;50.882;5.350;2023-02-28T04:21:31;-1.30;99.90
18753;DHT22;9505;50.882;5.350;2023-02-28T04:23:56;-1.40;99.90
18753;DHT22;9505;50.882;5.350;2023-02-28T04:26:29;-1.50;99.90
18753;DHT22;9505;50.882;5.350;2023-02-28T04:28:55;-1.50;99.90
18753;DHT22;9505;50.882;5.350;2023-02-28T04:31:21;-1.50;99.90
18753;DHT22;9505;50.882;5.350;2023-02-28T04:33:47;-1.60;99.90
18753;DHT22;9505;50.882;5.350;2023-02-28T04:36:12;-1.50;99.90
18753;DHT22;9505;50.882;5.350;2023-02-28T04:38:40;-1.40;99.90
18753;DHT22;9505;50.882;5.350;2023-02-28T04:41:06;-1.30;99.90
18753;DHT22;9505;50.882;5.350;2023-02-28T04:43:32;-1.40;99.90
18753;DHT22;9505;50.882;5.350;2023-02-28T04:46:00;-1.30;99.90
18753;DHT22;9505;50.882;5.350;2023-02-28T04:48:30;-1.40;99.90
18753;DHT22;9505;50.882;5.350;2023-02-28T04:51:01;-1.40;99.90
18753;DHT22;9505;50.882;5.350;2023-02-28T04:53:27;-1.50;99.90
18753;DHT22;9505;50.882;5.350;2023-02-28T04:55:53;-1.50;99.90
18753;DHT22;9505;50.882;5.350;2023-02-28T04:58:19;-1.60;99.90
18753;DHT22;9505;50.882;5.350;2023-02-28T05:00:44;-1.60;99.90
18753;DHT22;9505;50.882;5.350;2023-02-28T05:03:10;-1.70;99.90
18753;DHT22;9505;50.882;5.350;2023-02-28T05:05:36;-1.70;99.90
18753;DHT22;9505;50.882;5.350;2023-02-28T05:08:01;-1.80;99.90
18753;DHT22;9505;50.882;5.350;2023-02-28T05:10:27;-1.80;99.90
18753;DHT22;9505;50.882;5.350;2023-02-28T05:12:52;-1.90;99.90
18753;DHT22;9505;50.882;5.350;2023-02-28T05:15:18;-2.00;99.90
18753;DHT22;9505;50.882;5.350;2023-02-28T05:17:43;-2.10;99.90
18753;DHT22;9505;50.882;5.350;2023-02-28T05:20:10;-2.20;99.90
18753;DHT22;9505;50.882;5.350;2023-02-28T05:22:39;-2.20;99.90
18753;DHT22;9505;50.882;5.350;2023-02-28T05:25:06;-2.30;99.90
18753;DHT22;9505;50.882;5.350;2023-02-28T05:27:32;-2.30;99.90
18753;DHT22;9505;50.882;5.350;2023-02-28T05:29:57;-2.40;99.90
18753;DHT22;9505;50.882;5.350;2023-02-28T05:32:24;-2.40;99.90
18753;DHT22;9505;50.882;5.350;2023-02-28T05:34:49;-2.50;99.90
18753;DHT22;9505;50.882;5.350;2023-02-28T05:37:15;-2.50;99.90
18753;DHT22;9505;50.882;5.350;2023-02-28T05:39:43;-2.50;99.90
18753;DHT22;9505;50.882;5.350;2023-02-28T05:42:08;-2.50;99.90
18753;DHT22;9505;50.882;5.350;2023-02-28T05:44:35;-2.60;99.90
18753;DHT22;9505;50.882;5.350;2023-02-28T05:47:01;-2.70;99.90
18753;DHT22;9505;50.882;5.350;2023-02-28T05:49:27;-2.70;99.90
18753;DHT22;9505;50.882;5.350;2023-02-28T05:51:52;-2.70;99.90
18753;DHT22;9505;50.882;5.350;2023-02-28T05:54:18;-2.60;99.90
18753;DHT22;9505;50.882;5.350;2023-02-28T05:56:43;-2.60;99.90
18753;DHT22;9505;50.882;5.350;2023-02-28T05:59:14;-2.50;99.90
18753;DHT22;9505;50.882;5.350;2023-02-28T06:01:42;-2.40;99.90
18753;DHT22;9505;50.882;5.350;2023-02-28T06:04:11;-2.40;99.90
18753;DHT22;9505;50.882;5.350;2023-02-28T06:06:36;-2.40;99.90
18753;DHT22;9505;50.882;5.350;2023-02-28T06:09:06;-2.40;99.90
18753;DHT22;9505;50.882;5.350;2023-02-28T06:11:32;-2.40;99.90
18753;DHT22;9505;50.882;5.350;2023-02-28T06:13:59;-2.30;99.90
18753;DHT22;9505;50.882;5.350;2023-02-28T06:16:26;-2.40;99.90
18753;DHT22;9505;50.882;5.350;2023-02-28T06:18:52;-2.40;99.90
18753;DHT22;9505;50.882;5.350;2023-02-28T06:21:24;-2.40;99.90
18753;DHT22;9505;50.882;5.350;2023-02-28T06:23:50;-2.40;99.90
18753;DHT22;9505;50.882;5.350;2023-02-28T06:26:16;-2.30;99.90
18753;DHT22;9505;50.882;5.350;2023-02-28T06:28:41;-2.30;99.90
18753;DHT22;9505;50.882;5.350;2023-02-28T06:31:11;-2.40;99.90
18753;DHT22;9505;50.882;5.350;2023-02-28T06:33:38;-2.50;99.90
18753;DHT22;9505;50.882;5.350;2023-02-28T06:36:05;-2.50;99.90
18753;DHT22;9505;50.882;5.350;2023-02-28T06:38:31;-2.50;99.90
18753;DHT22;9505;50.882;5.350;2023-02-28T06:40:59;-2.50;99.90
18753;DHT22;9505;50.882;5.350;2023-02-28T06:43:25;-2.50;99.90
18753;DHT22;9505;50.882;5.350;2023-02-28T06:45:55;-2.40;99.90
18753;DHT22;9505;50.882;5.350;2023-02-28T06:48:21;-2.40;99.90
18753;DHT22;9505;50.882;5.350;2023-02-28T06:50:47;-2.30;99.90
18753;DHT22;9505;50.882;5.350;2023-02-28T06:53:13;-2.20;99.90
18753;DHT22;9505;50.882;5.350;2023-02-28T06:55:39;-2.20;99.90
18753;DHT22;9505;50.882;5.350;2023-02-28T06:58:04;-2.10;99.90
18753;DHT22;9505;50.882;5.350;2023-02-28T07:00:43;-2.00;99.90
18753;DHT22;9505;50.882;5.350;2023-02-28T07:03:10;-1.90;99.90
18753;DHT22;9505;50.882;5.350;2023-02-28T07:05:37;-1.90;99.90
18753;DHT22;9505;50.882;5.350;2023-02-28T07:08:04;-1.70;99.90
18753;DHT22;9505;50.882;5.350;2023-02-28T07:10:32;-1.70;99.90
18753;DHT22;9505;50.882;5.350;2023-02-28T07:12:58;-1.50;99.90
18753;DHT22;9505;50.882;5.350;2023-02-28T07:15:24;-1.40;99.90
18753;DHT22;9505;50.882;5.350;2023-02-28T07:17:49;-1.30;99.90
18753;DHT22;9505;50.882;5.350;2023-02-28T07:20:15;-1.20;99.90
18753;DHT22;9505;50.882;5.350;2023-02-28T07:22:41;-1.00;99.90
18753;DHT22;9505;50.882;5.350;2023-02-28T07:25:08;-0.80;99.90
18753;DHT22;9505;50.882;5.350;2023-02-28T07:27:34;-0.70;99.90
18753;DHT22;9505;50.882;5.350;2023-02-28T07:29:59;-0.60;99.90
18753;DHT22;9505;50.882;5.350;2023-02-28T07:32:27;-0.50;99.90
18753;DHT22;9505;50.882;5.350;2023-02-28T07:34:53;-0.40;99.90
18753;DHT22;9505;50.882;5.350;2023-02-28T07:37:19;-0.20;99.90
18753;DHT22;9505;50.882;5.350;2023-02-28T07:39:45;-0.10;99.90
18753;DHT22;9505;50.882;5.350;2023-02-28T07:42:10;0.00;99.90
18753;DHT22;9505;50.882;5.350;2023-02-28T07:44:41;0.10;99.90
18753;DHT22;9505;50.882;5.350;2023-02-28T07:47:11;0.40;99.90
18753;DHT22;9505;50.882;5.350;2023-02-28T07:49:37;0.50;99.90
18753;DHT22;9505;50.882;5.350;2023-02-28T07:52:04;0.60;99.90
18753;DHT22;9505;50.882;5.350;2023-02-28T07:54:30;0.80;99.90
18753;DHT22;9505;50.882;5.350;2023-02-28T07:56:56;1.10;99.90
18753;DHT22;9505;50.882;5.350;2023-02-28T07:59:22;1.40;99.90
18753;DHT22;9505;50.882;5.350;2023-02-28T08:01:47;1.80;99.90
18753;DHT22;9505;50.882;5.350;2023-02-28T08:04:16;2.50;99.90
18753;DHT22;9505;50.882;5.350;2023-02-28T08:06:41;3.00;99.90
18753;DHT22;9505;50.882;5.350;2023-02-28T08:09:07;3.20;99.90
18753;DHT22;9505;50.882;5.350;2023-02-28T08:11:33;3.20;99.90
18753;DHT22;9505;50.882;5.350;2023-02-28T08:13:58;3.20;99.90
18753;DHT22;9505;50.882;5.350;2023-02-28T08:16:24;2.90;99.90
18753;DHT22;9505;50.882;5.350;2023-02-28T08:18:51;2.80;99.90
18753;DHT22;9505;50.882;5.350;2023-02-28T08:21:16;2.80;99.90
18753;DHT22;9505;50.882;5.350;2023-02-28T08:23:42;3.30;99.90
18753;DHT22;9505;50.882;5.350;2023-02-28T08:26:08;3.40;99.90
18753;DHT22;9505;50.882;5.350;2023-02-28T08:28:33;3.60;99.90
18753;DHT22;9505;50.882;5.350;2023-02-28T08:30:59;4.00;99.90
18753;DHT22;9505;50.882;5.350;2023-02-28T08:33:27;4.30;99.90
18753;DHT22;9505;50.882;5.350;2023-02-28T08:35:54;4.60;99.90
18753;DHT22;9505;50.882;5.350;2023-02-28T08:38:20;5.60;99.90
18753;DHT22;9505;50.882;5.350;2023-02-28T08:40:45;6.80;99.90
18753;DHT22;9505;50.882;5.350;2023-02-28T08:43:11;7.90;99.90
18753;DHT22;9505;50.882;5.350;2023-02-28T08:45:36;8.90;99.90
18753;DHT22;9505;50.882;5.350;2023-02-28T08:48:02;9.40;99.90
18753;DHT22;9505;50.882;5.350;2023-02-28T08:50:28;9.50;99.90
18753;DHT22;9505;50.882;5.350;2023-02-28T08:52:53;9.90;99.90
18753;DHT22;9505;50.882;5.350;2023-02-28T08:55:19;10.00;99.90
18753;DHT22;9505;50.882;5.350;2023-02-28T08:57:44;10.20;99.90
18753;DHT22;9505;50.882;5.350;2023-02-28T09:00:10;10.00;99.80
18753;DHT22;9505;50.882;5.350;2023-02-28T09:02:39;9.30;99.90
18753;DHT22;9505;50.882;5.350;2023-02-28T09:05:05;8.60;99.90
18753;DHT22;9505;50.882;5.350;2023-02-28T09:07:30;7.70;99.90
18753;DHT22;9505;50.882;5.350;2023-02-28T09:09:56;7.40;99.90
18753;DHT22;9505;50.882;5.350;2023-02-28T09:12:24;7.80;99.90
18753;DHT22;9505;50.882;5.350;2023-02-28T09:14:50;7.70;99.90
18753;DHT22;9505;50.882;5.350;2023-02-28T09:17:17;7.20;99.90
18753;DHT22;9505;50.882;5.350;2023-02-28T09:19:43;6.90;99.90
18753;DHT22;9505;50.882;5.350;2023-02-28T09:22:10;6.30;99.90
18753;DHT22;9505;50.882;5.350;2023-02-28T09:24:37;6.30;99.90
18753;DHT22;9505;50.882;5.350;2023-02-28T09:27:03;6.20;99.90
18753;DHT22;9505;50.882;5.350;2023-02-28T09:29:30;5.40;99.90
18753;DHT22;9505;50.882;5.350;2023-02-28T09:31:55;5.50;99.90
18753;DHT22;9505;50.882;5.350;2023-02-28T09:34:24;5.70;99.90
18753;DHT22;9505;50.882;5.350;2023-02-28T09:36:50;5.60;99.90
18753;DHT22;9505;50.882;5.350;2023-02-28T09:39:20;5.80;99.90
18753;DHT22;9505;50.882;5.350;2023-02-28T09:41:49;5.50;99.90
18753;DHT22;9505;50.882;5.350;2023-02-28T09:44:39;5.30;99.90
18753;DHT22;9505;50.882;5.350;2023-02-28T09:47:39;5.60;99.90
18753;DHT22;9505;50.882;5.350;2023-02-28T09:52:59;5.40;99.90
18753;DHT22;9505;50.882;5.350;2023-02-28T09:55:42;5.30;99.90
18753;DHT22;9505;50.882;5.350;2023-02-28T09:58:42;5.50;99.90
18753;DHT22;9505;50.882;5.350;2023-02-28T10:01:20;5.60;99.90
18753;DHT22;9505;50.882;5.350;2023-02-28T10:03:47;5.40;99.90
18753;DHT22;9505;50.882;5.350;2023-02-28T10:06:20;5.90;99.90
18753;DHT22;9505;50.882;5.350;2023-02-28T10:08:58;6.00;99.90
18753;DHT22;9505;50.882;5.350;2023-02-28T10:11:27;6.10;99.90
18753;DHT22;9505;50.882;5.350;2023-02-28T10:16:50;6.20;99.90
18753;DHT22;9505;50.882;5.350;2023-02-28T10:19:43;6.00;99.90
18753;DHT22;9505;50.882;5.350;2023-02-28T10:24:52;5.80;99.90
18753;DHT22;9505;50.882;5.350;2023-02-28T10:27:25;5.90;99.90
18753;DHT22;9505;50.882;5.350;2023-02-28T10:29:52;6.10;99.90
18753;DHT22;9505;50.882;5.350;2023-02-28T10:32:21;6.40;99.90
18753;DHT22;9505;50.882;5.350;2023-02-28T10:37:24;6.00;99.90
18753;DHT22;9505;50.882;5.350;2023-02-28T10:39:50;6.20;99.90
18753;DHT22;9505;50.882;5.350;2023-02-28T10:42:27;6.30;98.90
18753;DHT22;9505;50.882;5.350;2023-02-28T10:47:57;6.60;97.50
18753;DHT22;9505;50.882;5.350;2023-02-28T10:55:40;6.80;97.10
18753;DHT22;9505;50.882;5.350;2023-02-28T10:58:21;6.10;98.10
18753;DHT22;9505;50.882;5.350;2023-02-28T11:00:47;6.10;99.90
18753;DHT22;9505;50.882;5.350;2023-02-28T11:03:34;6.20;98.00
18753;DHT22;9505;50.882;5.350;2023-02-28T11:06:11;5.90;96.70
18753;DHT22;9505;50.882;5.350;2023-02-28T11:09:19;5.50;97.10
18753;DHT22;9505;50.882;5.350;2023-02-28T11:11:47;5.40;99.80
18753;DHT22;9505;50.882;5.350;2023-02-28T11:14:21;5.90;99.60
18753;DHT22;9505;50.882;5.350;2023-02-28T11:16:47;5.70;96.30
18753;DHT22;9505;50.882;5.350;2023-02-28T11:19:27;5.60;97.80
18753;DHT22;9505;50.882;5.350;2023-02-28T11:22:02;6.00;97.50
18753;DHT22;9505;50.882;5.350;2023-02-28T11:24:33;6.20;98.20
18753;DHT22;9505;50.882;5.350;2023-02-28T11:26:59;6.30;97.00
18753;DHT22;9505;50.882;5.350;2023-02-28T11:29:30;6.60;98.20
18753;DHT22;9505;50.882;5.350;2023-02-28T11:34:35;7.20;96.80
18753;DHT22;9505;50.882;5.350;2023-02-28T11:37:01;6.90;98.80
18753;DHT22;9505;50.882;5.350;2023-02-28T11:39:31;7.20;95.40
18753;DHT22;9505;50.882;5.350;2023-02-28T11:47:58;7.10;96.10
18753;DHT22;9505;50.882;5.350;2023-02-28T11:50:34;6.90;98.30
18753;DHT22;9505;50.882;5.350;2023-02-28T11:55:42;6.00;97.10
18753;DHT22;9505;50.882;5.350;2023-02-28T12:03:45;7.50;96.10
18753;DHT22;9505;50.882;5.350;2023-02-28T12:06:21;7.20;92.90
18753;DHT22;9505;50.882;5.350;2023-02-28T12:12:03;7.20;93.60
18753;DHT22;9505;50.882;5.350;2023-02-28T12:14:45;6.80;94.00
18753;DHT22;9505;50.882;5.350;2023-02-28T12:17:36;6.70;97.20
18753;DHT22;9505;50.882;5.350;2023-02-28T12:27:36;7.30;94.90
18753;DHT22;9505;50.882;5.350;2023-02-28T12:30:08;7.80;96.40
18753;DHT22;9505;50.882;5.350;2023-02-28T12:32:44;7.40;94.10
18753;DHT22;9505;50.882;5.350;2023-02-28T12:37:51;7.00;94.30
18753;DHT22;9505;50.882;5.350;2023-02-28T12:40:28;6.90;94.00
18753;DHT22;9505;50.882;5.350;2023-02-28T12:42:59;6.40;93.80
18753;DHT22;9505;50.882;5.350;2023-02-28T12:48:00;6.60;94.50
18753;DHT22;9505;50.882;5.350;2023-02-28T12:50:29;6.80;94.30
18753;DHT22;9505;50.882;5.350;2023-02-28T12:53:09;6.70;93.80
18753;DHT22;9505;50.882;5.350;2023-02-28T12:55:52;6.90;95.30
18753;DHT22;9505;50.882;5.350;2023-02-28T12:58:48;7.40;95.40
18753;DHT22;9505;50.882;5.350;2023-02-28T13:09:10;7.20;94.40
18753;DHT22;9505;50.882;5.350;2023-02-28T13:11:44;7.20;93.60
18753;DHT22;9505;50.882;5.350;2023-02-28T13:14:24;7.30;94.30
18753;DHT22;9505;50.882;5.350;2023-02-28T13:19:26;6.90;95.10
18753;DHT22;9505;50.882;5.350;2023-02-28T13:21:54;7.00;94.30
18753;DHT22;9505;50.882;5.350;2023-02-28T13:29:36;7.10;95.20
18753;DHT22;9505;50.882;5.350;2023-02-28T13:34:32;7.10;94.80
18753;DHT22;9505;50.882;5.350;2023-02-28T13:39:46;7.00;95.30
18753;DHT22;9505;50.882;5.350;2023-02-28T13:47:30;7.10;94.30
18753;DHT22;9505;50.882;5.350;2023-02-28T14:04:16;6.70;94.90
18753;DHT22;9505;50.882;5.350;2023-02-28T14:06:53;6.90;95.80
18753;DHT22;9505;50.882;5.350;2023-02-28T14:09:46;7.00;94.60
18753;DHT22;9505;50.882;5.350;2023-02-28T14:24:21;7.60;92.80
18753;DHT22;9505;50.882;5.350;2023-02-28T14:26:55;7.50;95.30
18753;DHT22;9505;50.882;5.350;2023-02-28T14:32:05;8.10;93.10
18753;DHT22;9505;50.882;5.350;2023-02-28T14:34:52;8.30;93.30
18753;DHT22;9505;50.882;5.350;2023-02-28T14:37:26;8.80;92.40
18753;DHT22;9505;50.882;5.350;2023-02-28T14:39:53;8.70;91.50
18753;DHT22;9505;50.882;5.350;2023-02-28T14:44:55;8.00;94.30
18753;DHT22;9505;50.882;5.350;2023-02-28T14:47:28;8.50;93.30
18753;DHT22;9505;50.882;5.350;2023-02-28T14:49:55;8.50;93.40
18753;DHT22;9505;50.882;5.350;2023-02-28T14:52:24;8.90;92.60
18753;DHT22;9505;50.882;5.350;2023-02-28T14:54:55;9.20;91.70
18753;DHT22;9505;50.882;5.350;2023-02-28T14:57:27;9.30;91.90
18753;DHT22;9505;50.882;5.350;2023-02-28T15:00:20;9.60;91.50
18753;DHT22;9505;50.882;5.350;2023-02-28T15:02:46;10.10;91.50
18753;DHT22;9505;50.882;5.350;2023-02-28T15:07:38;9.50;92.30
18753;DHT22;9505;50.882;5.350;2023-02-28T15:12:53;9.60;92.50
18753;DHT22;9505;50.882;5.350;2023-02-28T15:15:20;9.80;92.40
18753;DHT22;9505;50.882;5.350;2023-02-28T15:17:50;9.70;92.20
18753;DHT22;9505;50.882;5.350;2023-02-28T15:20:17;9.00;92.80
18753;DHT22;9505;50.882;5.350;2023-02-28T15:22:46;8.30;92.60
18753;DHT22;9505;50.882;5.350;2023-02-28T15:25:16;8.20;93.00
18753;DHT22;9505;50.882;5.350;2023-02-28T15:27:46;8.30;93.80
18753;DHT22;9505;50.882;5.350;2023-02-28T15:30:25;8.60;92.60
18753;DHT22;9505;50.882;5.350;2023-02-28T15:35:38;8.60;92.50
18753;DHT22;9505;50.882;5.350;2023-02-28T15:38:15;8.60;92.30
18753;DHT22;9505;50.882;5.350;2023-02-28T15:40:45;8.30;92.90
18753;DHT22;9505;50.882;5.350;2023-02-28T15:46:11;8.40;92.80
18753;DHT22;9505;50.882;5.350;2023-02-28T15:48:43;8.10;92.20
18753;DHT22;9505;50.882;5.350;2023-02-28T15:51:18;8.10;92.60
18753;DHT22;9505;50.882;5.350;2023-02-28T15:56:29;7.90;92.40
18753;DHT22;9505;50.882;5.350;2023-02-28T15:58:57;8.10;91.80
18753;DHT22;9505;50.882;5.350;2023-02-28T16:01:36;8.30;93.10
18753;DHT22;9505;50.882;5.350;2023-02-28T16:04:16;8.10;92.20
18753;DHT22;9505;50.882;5.350;2023-02-28T16:09:15;8.10;93.90
18753;DHT22;9505;50.882;5.350;2023-02-28T16:11:45;8.30;93.10
18753;DHT22;9505;50.882;5.350;2023-02-28T16:14:25;8.50;92.50
18753;DHT22;9505;50.882;5.350;2023-02-28T16:16:55;8.30;92.40
18753;DHT22;9505;50.882;5.350;2023-02-28T16:19:22;8.20;93.10
18753;DHT22;9505;50.882;5.350;2023-02-28T16:21:48;7.80;93.60
18753;DHT22;9505;50.882;5.350;2023-02-28T16:24:14;7.80;93.80
18753;DHT22;9505;50.882;5.350;2023-02-28T16:26:40;7.70;92.90
18753;DHT22;9505;50.882;5.350;2023-02-28T16:29:08;7.40;93.10
18753;DHT22;9505;50.882;5.350;2023-02-28T16:31:38;7.10;93.40
18753;DHT22;9505;50.882;5.350;2023-02-28T16:34:04;7.00;94.50
18753;DHT22;9505;50.882;5.350;2023-02-28T16:36:30;7.00;93.90
18753;DHT22;9505;50.882;5.350;2023-02-28T16:38:56;6.90;94.30
18753;DHT22;9505;50.882;5.350;2023-02-28T16:41:25;6.50;95.10
18753;DHT22;9505;50.882;5.350;2023-02-28T16:43:53;6.30;95.20
18753;DHT22;9505;50.882;5.350;2023-02-28T16:46:20;6.10;95.80
18753;DHT22;9505;50.882;5.350;2023-02-28T16:48:47;5.80;95.90
18753;DHT22;9505;50.882;5.350;2023-02-28T16:51:17;5.70;96.60
18753;DHT22;9505;50.882;5.350;2023-02-28T16:53:44;5.40;97.00
18753;DHT22;9505;50.882;5.350;2023-02-28T16:56:17;5.10;97.00
18753;DHT22;9505;50.882;5.350;2023-02-28T16:58:43;4.90;97.70
18753;DHT22;9505;50.882;5.350;2023-02-28T17:01:09;4.70;98.20
18753;DHT22;9505;50.882;5.350;2023-02-28T17:03:35;4.70;98.60
18753;DHT22;9505;50.882;5.350;2023-02-28T17:06:02;4.50;99.20
18753;DHT22;9505;50.882;5.350;2023-02-28T17:08:29;4.40;98.00
18753;DHT22;9505;50.882;5.350;2023-02-28T17:10:55;4.30;98.60
18753;DHT22;9505;50.882;5.350;2023-02-28T17:13:21;4.30;99.00
18753;DHT22;9505;50.882;5.350;2023-02-28T17:15:46;4.20;99.20
18753;DHT22;9505;50.882;5.350;2023-02-28T17:18:18;4.10;99.70
18753;DHT22;9505;50.882;5.350;2023-02-28T17:20:46;4.00;99.80
18753;DHT22;9505;50.882;5.350;2023-02-28T17:23:12;4.00;99.90
18753;DHT22;9505;50.882;5.350;2023-02-28T17:25:37;3.80;99.90
18753;DHT22;9505;50.882;5.350;2023-02-28T17:28:04;3.70;99.90
18753;DHT22;9505;50.882;5.350;2023-02-28T17:30:33;3.70;99.90
18753;DHT22;9505;50.882;5.350;2023-02-28T17:32:59;3.60;99.90
18753;DHT22;9505;50.882;5.350;2023-02-28T17:35:25;3.50;99.90
18753;DHT22;9505;50.882;5.350;2023-02-28T17:37:52;3.50;99.90
18753;DHT22;9505;50.882;5.350;2023-02-28T17:40:20;3.50;99.90
18753;DHT22;9505;50.882;5.350;2023-02-28T17:42:46;3.40;99.90
18753;DHT22;9505;50.882;5.350;2023-02-28T17:45:13;3.30;99.90
18753;DHT22;9505;50.882;5.350;2023-02-28T17:47:39;3.30;99.90
18753;DHT22;9505;50.882;5.350;2023-02-28T17:50:06;3.30;99.90
18753;DHT22;9505;50.882;5.350;2023-02-28T17:52:31;3.20;99.90
18753;DHT22;9505;50.882;5.350;2023-02-28T17:55:03;3.20;99.90
18753;DHT22;9505;50.882;5.350;2023-02-28T17:57:29;3.10;99.90
18753;DHT22;9505;50.882;5.350;2023-02-28T17:59:55;3.10;99.90
18753;DHT22;9505;50.882;5.350;2023-02-28T18:02:20;3.00;99.90
18753;DHT22;9505;50.882;5.350;2023-02-28T18:04:46;3.00;99.90
18753;DHT22;9505;50.882;5.350;2023-02-28T18:07:12;2.90;99.90
18753;DHT22;9505;50.882;5.350;2023-02-28T18:09:37;2.90;99.90
18753;DHT22;9505;50.882;5.350;2023-02-28T18:12:03;2.80;99.90
18753;DHT22;9505;50.882;5.350;2023-02-28T18:14:29;2.70;99.90
18753;DHT22;9505;50.882;5.350;2023-02-28T18:16:55;2.60;99.90
18753;DHT22;9505;50.882;5.350;2023-02-28T18:19:22;2.50;99.90
18753;DHT22;9505;50.882;5.350;2023-02-28T18:21:51;2.40;99.90
18753;DHT22;9505;50.882;5.350;2023-02-28T18:24:18;2.40;99.90
18753;DHT22;9505;50.882;5.350;2023-02-28T18:26:44;2.40;99.90
18753;DHT22;9505;50.882;5.350;2023-02-28T18:29:28;2.30;99.90
18753;DHT22;9505;50.882;5.350;2023-02-28T18:31:55;2.20;99.90
18753;DHT22;9505;50.882;5.350;2023-02-28T18:34:22;2.20;99.90
18753;DHT22;9505;50.882;5.350;2023-02-28T18:36:49;2.10;99.90
18753;DHT22;9505;50.882;5.350;2023-02-28T18:39:16;2.10;99.90
18753;DHT22;9505;50.882;5.350;2023-02-28T18:41:42;2.10;99.90
18753;DHT22;9505;50.882;5.350;2023-02-28T18:44:08;2.00;99.90